Time;durP1;ratioP1;P1;durP2;ratioP2;P2;SDS_P1;SDS_P2;PMS_P1;PMS_P2;Temp;Humidity;BMP_temperature;BMP_pressure;BME280_temperature;BME280_humidity;BME280_pressure;Samples;Min_cycle;Max_cycle;Signal;HPM_P1;HPM_P2
2023/02/08 00:00:41;;;;;;;;;;;;;;;22.16;36.70;103535.25;7247571;19;154492;-59
2023/02/08 00:03:08;;;;;;;;;;;;;;;22.13;36.57;103541.38;7264884;19;153103;-59
2023/02/08 00:05:35;;;;;;;;;;;;;;;22.12;36.41;103539.69;7259828;19;153726;-59
2023/02/08 00:08:02;;;;;;;;;;;;;;;22.10;36.67;103541.88;7256904;19;154510;-59
2023/02/08 00:10:29;;;;;;;;;;;;;;;22.08;36.54;103549.72;7259574;19;153907;-59
2023/02/08 00:12:56;;;;;;;;;;;;;;;22.06;36.62;103551.97;7258562;19;154184;-59
2023/02/08 00:15:23;;;;;;;;;;;;;;;22.03;36.70;103561.75;7255981;19;154035;-59
2023/02/08 00:17:50;;;;;;;;;;;;;;;22.00;36.68;103564.22;7253579;19;154786;-59
2023/02/08 00:20:17;;;;;;;;;;;;;;;21.98;37.05;103552.41;7258603;19;155296;-59
2023/02/08 00:22:44;;;;;;;;;;;;;;;21.95;36.68;103556.56;7258423;19;153187;-59
2023/02/08 00:25:11;;;;;;;;;;;;;;;21.95;37.13;103550.94;7266159;19;153736;-59
2023/02/08 00:27:38;;;;;;;;;;;;;;;21.92;36.83;103550.56;7223753;19;154010;-59
2023/02/08 00:30:06;;;;;;;;;;;;;;;21.93;36.87;103547.53;7248629;19;154670;-59
2023/02/08 00:32:33;;;;;;;;;;;;;;;21.92;36.96;103554.22;7260820;19;154168;-58
2023/02/08 00:35:00;;;;;;;;;;;;;;;21.87;37.10;103544.81;7256398;19;152957;-59
2023/02/08 00:37:27;;;;;;;;;;;;;;;21.86;37.15;103541.16;7253867;19;154950;-59
2023/02/08 00:39:54;;;;;;;;;;;;;;;21.80;37.37;103546.97;7256800;19;154348;-58
2023/02/08 00:42:21;;;;;;;;;;;;;;;21.76;37.50;103546.59;7255510;19;153244;-58
2023/02/08 00:44:48;;;;;;;;;;;;;;;21.70;37.89;103542.88;7262460;19;153714;-58
2023/02/08 00:47:15;;;;;;;;;;;;;;;21.67;38.16;103543.34;7258343;19;153344;-58
2023/02/08 00:49:42;;;;;;;;;;;;;;;21.68;38.05;103532.94;7259958;19;154426;-59
2023/02/08 00:52:09;;;;;;;;;;;;;;;21.62;37.94;103532.00;7253651;19;153674;-59
2023/02/08 00:54:36;;;;;;;;;;;;;;;21.61;38.06;103535.94;7256361;19;153158;-59
2023/02/08 00:57:03;;;;;;;;;;;;;;;21.56;38.07;103538.66;7255128;19;154551;-58
2023/02/08 00:59:30;;;;;;;;;;;;;;;21.53;38.24;103536.31;7253596;19;153837;-59
2023/02/08 01:01:57;;;;;;;;;;;;;;;21.53;38.35;103535.50;7257321;19;153385;-58
2023/02/08 01:04:24;;;;;;;;;;;;;;;21.52;37.93;103539.41;7259552;19;153862;-58
2023/02/08 01:06:51;;;;;;;;;;;;;;;21.47;37.93;103544.94;7262267;19;153688;-59
2023/02/08 01:09:18;;;;;;;;;;;;;;;21.47;38.38;103540.16;7255840;19;153690;-58
2023/02/08 01:11:45;;;;;;;;;;;;;;;21.44;38.26;103543.47;7210650;19;158147;-58
2023/02/08 01:14:11;;;;;;;;;;;;;;;21.42;38.29;103542.03;7255319;19;152978;-58
2023/02/08 01:16:38;;;;;;;;;;;;;;;21.39;37.91;103532.13;7256051;19;153814;-58
2023/02/08 01:19:05;;;;;;;;;;;;;;;21.33;38.07;103530.31;7249329;19;153297;-58
2023/02/08 01:21:34;;;;;;;;;;;;;;;21.30;38.19;103528.03;7255357;19;153241;-58
2023/02/08 01:24:01;;;;;;;;;;;;;;;21.27;38.38;103525.69;7254503;19;153790;-59
2023/02/08 01:26:28;;;;;;;;;;;;;;;21.27;38.38;103514.44;7253933;19;153837;-58
2023/02/08 01:28:55;;;;;;;;;;;;;;;21.22;38.04;103525.59;7263999;19;153443;-58
2023/02/08 01:31:25;;;;;;;;;;;;;;;21.17;38.29;103515.09;7251647;19;153221;-58
2023/02/08 01:33:52;;;;;;;;;;;;;;;21.17;38.06;103511.41;7257898;19;152691;-58
2023/02/08 01:36:19;;;;;;;;;;;;;;;21.17;38.00;103500.16;7218237;19;154753;-58
2023/02/08 01:38:46;;;;;;;;;;;;;;;21.15;38.48;103502.41;7250985;19;153415;-59
2023/02/08 01:41:15;;;;;;;;;;;;;;;21.10;38.20;103496.63;7255191;19;153127;-59
2023/02/08 01:43:45;;;;;;;;;;;;;;;21.08;38.35;103498.84;7252237;19;153562;-59
2023/02/08 01:46:12;;;;;;;;;;;;;;;21.07;38.31;103494.34;7254249;19;154405;-59
2023/02/08 01:48:40;;;;;;;;;;;;;;;21.08;38.23;103498.84;7257145;19;153810;-59
2023/02/08 01:51:09;;;;;;;;;;;;;;;21.00;38.53;103488.00;7260667;19;153974;-59
2023/02/08 01:53:36;;;;;;;;;;;;;;;20.97;38.34;103489.34;7254554;19;154227;-59
2023/02/08 01:56:05;;;;;;;;;;;;;;;20.90;38.44;103490.59;7248662;19;153697;-58
2023/02/08 01:58:35;;;;;;;;;;;;;;;20.85;38.63;103495.00;7251834;19;154654;-58
2023/02/08 02:01:02;;;;;;;;;;;;;;;20.84;38.89;103489.66;7253760;19;154657;-59
2023/02/08 02:03:29;;;;;;;;;;;;;;;20.83;38.78;103493.56;7210044;19;155186;-59
2023/02/08 02:06:02;;;;;;;;;;;;;;;20.77;38.61;103486.97;7253944;19;154860;-59
2023/02/08 02:08:29;;;;;;;;;;;;;;;20.74;38.60;103493.09;7252501;19;153913;-59
2023/02/08 02:10:56;;;;;;;;;;;;;;;20.73;38.80;103491.38;7249321;19;153030;-58
2023/02/08 02:13:25;;;;;;;;;;;;;;;20.71;39.13;103484.31;7260108;19;154229;-58
2023/02/08 02:15:53;;;;;;;;;;;;;;;20.69;38.93;103492.97;7253385;19;154422;-58
2023/02/08 02:18:23;;;;;;;;;;;;;;;20.67;39.19;103489.53;7252266;19;153925;-58
2023/02/08 02:20:50;;;;;;;;;;;;;;;20.66;39.09;103481.38;7248380;19;153092;-58
2023/02/08 02:23:26;;;;;;;;;;;;;;;20.67;39.19;103489.53;7252466;19;153621;-58
2023/02/08 02:25:56;;;;;;;;;;;;;;;20.64;39.43;103486.38;7249585;19;153602;-59
2023/02/08 02:28:26;;;;;;;;;;;;;;;20.62;39.40;103485.78;7220830;19;161965;-58
2023/02/08 02:30:56;;;;;;;;;;;;;;;20.59;39.49;103483.47;7249343;19;153612;-58
2023/02/08 02:33:27;;;;;;;;;;;;;;;20.55;39.10;103482.25;7254225;19;155387;-58
2023/02/08 02:35:57;;;;;;;;;;;;;;;20.52;39.10;103472.38;7258994;19;152337;-58
2023/02/08 02:38:27;;;;;;;;;;;;;;;20.50;39.36;103462.47;7252364;19;154544;-58
2023/02/08 02:40:59;;;;;;;;;;;;;;;20.46;39.32;103456.50;7255679;19;153365;-58
2023/02/08 02:46:07;;;;;;;;;;;;;;;20.43;39.54;103451.41;7252438;19;154754;-59
2023/02/08 02:48:37;;;;;;;;;;;;;;;20.40;39.35;103440.63;7254137;19;153720;-59
2023/02/08 02:51:08;;;;;;;;;;;;;;;20.39;39.32;103442.63;7253064;19;152607;-58
2023/02/08 02:53:35;;;;;;;;;;;;;;;20.37;39.73;103438.31;7248086;19;153458;-59
2023/02/08 02:56:05;;;;;;;;;;;;;;;20.32;39.73;103436.25;7261228;19;153868;-59
2023/02/08 02:58:33;;;;;;;;;;;;;;;20.31;39.43;103439.31;7252762;19;154766;-58
2023/02/08 03:01:00;;;;;;;;;;;;;;;20.29;39.32;103427.44;7249456;19;153284;-59
2023/02/08 03:03:30;;;;;;;;;;;;;;;20.28;39.64;103423.78;7256174;19;153623;-58
2023/02/08 03:06:03;;;;;;;;;;;;;;;20.25;39.50;103427.09;7255022;19;154297;-59
2023/02/08 03:08:33;;;;;;;;;;;;;;;20.21;39.47;103425.88;7253765;19;153437;-59
2023/02/08 03:11:01;;;;;;;;;;;;;;;20.23;39.37;103420.84;7251763;19;153768;-59
2023/02/08 03:13:31;;;;;;;;;;;;;;;20.20;39.52;103415.75;7254964;19;154064;-62
2023/02/08 03:16:01;;;;;;;;;;;;;;;20.17;39.85;103413.41;7254461;19;153706;-59
2023/02/08 03:18:29;;;;;;;;;;;;;;;20.16;39.76;103416.47;7263927;19;153543;-59
2023/02/08 03:21:01;;;;;;;;;;;;;;;20.14;39.77;103416.72;7253967;19;155273;-59
2023/02/08 03:23:31;;;;;;;;;;;;;;;20.13;39.71;103415.00;7254502;19;154754;-58
2023/02/08 03:25:58;;;;;;;;;;;;;;;20.08;39.64;103420.50;7255161;19;154024;-59
2023/02/08 03:28:34;;;;;;;;;;;;;;;20.08;39.91;103414.06;7254132;19;154038;-59
2023/02/08 03:31:01;;;;;;;;;;;;;;;20.05;40.11;103420.13;7254354;19;153394;-59
2023/02/08 03:33:33;;;;;;;;;;;;;;;20.02;39.65;103403.81;7253639;19;154372;-59
2023/02/08 03:36:04;;;;;;;;;;;;;;;19.99;39.81;103399.53;7246801;19;153184;-59
2023/02/08 03:38:35;;;;;;;;;;;;;;;19.97;39.74;103398.94;7253505;19;154669;-59
2023/02/08 03:41:05;;;;;;;;;;;;;;;19.93;39.93;103398.56;7261346;19;155311;-58
2023/02/08 03:43:35;;;;;;;;;;;;;;;19.95;40.11;103406.72;7246771;19;154291;-59
2023/02/08 03:46:06;;;;;;;;;;;;;;;19.94;39.95;103407.84;7251169;19;154152;-59
2023/02/08 03:48:36;;;;;;;;;;;;;;;19.90;39.93;103403.78;7253496;19;154206;-58
2023/02/08 03:51:03;;;;;;;;;;;;;;;19.90;39.92;103404.66;7252746;19;154285;-58
2023/02/08 03:53:37;;;;;;;;;;;;;;;19.88;40.22;103404.06;7249881;19;154250;-59
2023/02/08 03:56:07;;;;;;;;;;;;;;;19.84;40.26;103405.66;7250743;19;154646;-59
2023/02/08 03:58:38;;;;;;;;;;;;;;;19.86;39.90;103408.19;7251988;19;154163;-59
2023/02/08 04:01:11;;;;;;;;;;;;;;;19.82;39.97;103409.78;7250173;19;155041;-59
2023/02/08 04:03:39;;;;;;;;;;;;;;;19.79;40.15;103413.09;7262106;19;153604;-59
2023/02/08 04:06:06;;;;;;;;;;;;;;;19.76;40.26;103413.56;7250577;19;153353;-59
2023/02/08 04:08:33;;;;;;;;;;;;;;;19.78;39.94;103409.41;7253243;19;155158;-59
2023/02/08 04:11:00;;;;;;;;;;;;;;;19.77;40.33;103406.84;7250809;19;153487;-59
2023/02/08 04:13:27;;;;;;;;;;;;;;;19.73;40.16;103406.47;7251402;19;155749;-59
2023/02/08 04:15:54;;;;;;;;;;;;;;;19.69;40.20;103408.06;7252205;19;154538;-59
2023/02/08 04:18:20;;;;;;;;;;;;;;;19.65;40.12;103404.03;7252335;19;153169;-59
2023/02/08 04:20:47;;;;;;;;;;;;;;;19.66;40.42;103400.16;7249158;19;153690;-59
2023/02/08 04:23:14;;;;;;;;;;;;;;;19.63;40.69;103400.63;7250253;19;152731;-58
2023/02/08 04:25:41;;;;;;;;;;;;;;;19.64;40.37;103398.66;7256916;19;153442;-59
2023/02/08 04:28:08;;;;;;;;;;;;;;;19.60;40.55;103398.31;7248095;19;154008;-59
2023/02/08 04:30:35;;;;;;;;;;;;;;;19.59;40.49;103398.53;7250305;19;153774;-59
2023/02/08 04:33:02;;;;;;;;;;;;;;;19.55;40.29;103395.38;7248982;19;153525;-59
2023/02/08 04:35:29;;;;;;;;;;;;;;;19.54;40.38;103397.31;7250500;19;153142;-59
2023/02/08 04:37:56;;;;;;;;;;;;;;;19.52;40.35;103393.06;7250942;19;154339;-59
2023/02/08 04:40:23;;;;;;;;;;;;;;;19.50;40.34;103390.50;7249794;19;154176;-59
2023/02/08 04:42:50;;;;;;;;;;;;;;;19.51;40.64;103388.53;7250183;19;152454;-59
2023/02/08 04:45:17;;;;;;;;;;;;;;;19.47;40.73;103385.38;7253128;19;155073;-58
2023/02/08 04:47:44;;;;;;;;;;;;;;;19.42;40.42;103388.03;7260117;19;153807;-59
2023/02/08 04:50:11;;;;;;;;;;;;;;;19.42;40.50;103390.81;7260375;19;154198;-59
2023/02/08 04:52:38;;;;;;;;;;;;;;;19.40;40.45;103397.75;7255818;19;154248;-58
2023/02/08 04:55:05;;;;;;;;;;;;;;;19.37;40.55;103396.28;7258031;19;153991;-58
2023/02/08 04:57:32;;;;;;;;;;;;;;;19.37;40.52;103395.44;7256094;19;153937;-59
2023/02/08 04:59:59;;;;;;;;;;;;;;;19.35;40.91;103380.81;7252605;19;154748;-59
2023/02/08 05:02:26;;;;;;;;;;;;;;;19.32;40.70;103386.88;7257478;19;153372;-59
2023/02/08 05:04:53;;;;;;;;;;;;;;;19.28;40.68;103389.31;7259146;19;152640;-59
2023/02/08 05:07:20;;;;;;;;;;;;;;;19.29;40.76;103382.63;7263573;19;154861;-59
2023/02/08 05:09:47;;;;;;;;;;;;;;;19.26;40.83;103390.69;7257787;19;154547;-59
2023/02/08 05:12:14;;;;;;;;;;;;;;;19.27;40.62;103390.41;7252555;19;154357;-61
2023/02/08 05:14:40;;;;;;;;;;;;;;;19.23;40.98;103385.53;7257660;19;153017;-59
2023/02/08 05:17:07;;;;;;;;;;;;;;;19.21;40.99;103384.94;7254527;19;155293;-59
2023/02/08 05:19:35;;;;;;;;;;;;;;;19.22;40.86;103379.06;7257811;19;154330;-59
2023/02/08 05:22:02;;;;;;;;;;;;;;;19.25;40.77;103377.75;7256734;19;153240;-59
2023/02/08 05:24:29;;;;;;;;;;;;;;;19.27;41.27;103375.53;7259317;19;153141;-59
2023/02/08 05:26:56;;;;;;;;;;;;;;;19.29;41.24;103379.84;7252442;19;153635;-59
2023/02/08 05:29:23;;;;;;;;;;;;;;;19.41;40.74;103388.25;7263747;19;153956;-59
2023/02/08 05:31:49;;;;;;;;;;;;;;;19.44;41.08;103383.03;7256052;19;154229;-59
2023/02/08 05:34:16;;;;;;;;;;;;;;;19.50;41.30;103389.63;7257958;19;153645;-59
2023/02/08 05:36:43;;;;;;;;;;;;;;;19.54;40.88;103393.66;7255041;19;153775;-59
2023/02/08 05:39:10;;;;;;;;;;;;;;;19.58;40.93;103391.25;7251044;19;153453;-59
2023/02/08 05:41:37;;;;;;;;;;;;;;;19.62;40.85;103400.88;7254519;19;152163;-59
2023/02/08 05:44:04;;;;;;;;;;;;;;;19.66;41.08;103399.28;7253409;19;153512;-59
2023/02/08 05:46:31;;;;;;;;;;;;;;;19.71;40.97;103403.09;7254420;19;153911;-59
2023/02/08 05:48:58;;;;;;;;;;;;;;;19.75;40.54;103397.84;7256875;19;153724;-59
2023/02/08 05:51:25;;;;;;;;;;;;;;;19.81;40.59;103403.31;7263767;19;153152;-59
2023/02/08 05:53:52;;;;;;;;;;;;;;;19.86;40.75;103400.63;7256685;19;154273;-58
2023/02/08 05:56:18;;;;;;;;;;;;;;;19.92;40.95;103412.84;7256381;19;153828;-59
2023/02/08 05:58:45;;;;;;;;;;;;;;;19.96;40.49;103417.72;7254925;19;154164;-59
2023/02/08 06:01:13;;;;;;;;;;;;;;;20.01;40.85;103411.38;7252195;19;152810;-59
2023/02/08 06:03:40;;;;;;;;;;;;;;;20.06;40.18;103405.03;7254522;19;154753;-58
2023/02/08 06:06:09;;;;;;;;;;;;;;;20.12;40.23;103401.25;7254291;19;153362;-59
2023/02/08 06:08:37;;;;;;;;;;;;;;;20.17;40.41;103396.56;7254071;19;151916;-58
2023/02/08 06:11:04;;;;;;;;;;;;;;;20.23;40.58;103403.16;7251281;19;154568;-59
2023/02/08 06:13:31;;;;;;;;;;;;;;;20.28;40.90;103397.66;7263281;19;154149;-59
2023/02/08 06:15:58;;;;;;;;;;;;;;;20.32;40.27;103396.94;7255123;19;153479;-59
2023/02/08 06:18:25;;;;;;;;;;;;;;;20.38;40.45;103392.31;7252695;19;154030;-59
2023/02/08 06:20:53;;;;;;;;;;;;;;;20.43;40.41;103398.03;7254193;19;153129;-59
2023/02/08 06:23:20;;;;;;;;;;;;;;;20.49;40.05;103407.44;7255710;19;155582;-59
2023/02/08 06:25:47;;;;;;;;;;;;;;;20.51;40.15;103403.25;7254475;19;155137;-59
2023/02/08 06:28:14;;;;;;;;;;;;;;;20.56;39.82;103399.69;7258697;19;153683;-59
2023/02/08 06:30:41;;;;;;;;;;;;;;;20.62;40.21;103396.75;7252868;19;155267;-58
2023/02/08 06:33:08;;;;;;;;;;;;;;;20.66;39.92;103395.16;7255776;19;154094;-58
2023/02/08 06:35:35;;;;;;;;;;;;;;;20.70;39.44;103385.13;7262369;19;154391;-59
2023/02/08 06:38:02;;;;;;;;;;;;;;;20.75;39.75;103382.41;7252434;19;156151;-57
2023/02/08 06:40:29;;;;;;;;;;;;;;;20.78;39.36;103381.91;7253825;19;154641;-59
2023/02/08 06:42:56;;;;;;;;;;;;;;;20.84;39.65;103383.72;7257279;19;154079;-59
2023/02/08 06:45:23;;;;;;;;;;;;;;;20.88;39.50;103383.22;7256363;19;153772;-59
2023/02/08 06:47:50;;;;;;;;;;;;;;;20.93;39.18;103374.88;7257901;19;153773;-59
2023/02/08 06:50:17;;;;;;;;;;;;;;;20.96;39.41;103385.59;7254958;19;154088;-59
2023/02/08 06:52:44;;;;;;;;;;;;;;;21.02;39.40;103381.78;7253916;19;153601;-59
2023/02/08 06:55:11;;;;;;;;;;;;;;;21.05;39.03;103381.28;7263360;19;153358;-59
2023/02/08 06:57:38;;;;;;;;;;;;;;;21.08;39.14;103380.75;7253728;19;156189;-59
2023/02/08 07:00:05;;;;;;;;;;;;;;;21.10;38.72;103378.56;7254079;19;153721;-59
2023/02/08 07:02:32;;;;;;;;;;;;;;;21.14;38.47;103385.41;7255426;19;154584;-59
2023/02/08 07:04:59;;;;;;;;;;;;;;;21.16;38.77;103388.84;7253086;19;154763;-59
2023/02/08 07:07:26;;;;;;;;;;;;;;;21.18;38.51;103375.38;7252678;19;153882;-59
2023/02/08 07:09:53;;;;;;;;;;;;;;;21.21;38.34;103380.50;7253634;19;154214;-59
2023/02/08 07:12:20;;;;;;;;;;;;;;;21.21;38.20;103383.31;7248776;19;154335;-59
2023/02/08 07:14:47;;;;;;;;;;;;;;;21.21;38.52;103384.13;7253767;19;153826;-59
2023/02/08 07:17:14;;;;;;;;;;;;;;;21.23;38.57;103379.13;7260053;19;154501;-58
2023/02/08 07:19:41;;;;;;;;;;;;;;;21.26;38.53;103375.81;7254344;19;153095;-59
2023/02/08 07:22:08;;;;;;;;;;;;;;;21.28;38.23;103379.22;7251876;19;153072;-59
2023/02/08 07:24:36;;;;;;;;;;;;;;;21.32;38.13;103375.88;7251426;19;154057;-59
2023/02/08 07:27:04;;;;;;;;;;;;;;;21.32;38.09;103379.56;7249684;19;152441;-58
2023/02/08 07:29:32;;;;;;;;;;;;;;;21.32;37.70;103376.75;7251376;19;152612;-59
2023/02/08 07:32:00;;;;;;;;;;;;;;;21.34;37.51;103368.91;7251462;19;154666;-59
2023/02/08 07:34:28;;;;;;;;;;;;;;;21.35;37.43;103373.41;7251993;19;154651;-59
2023/02/08 07:36:55;;;;;;;;;;;;;;;20.97;32.31;103378.88;7252927;19;153922;-61
2023/02/08 07:39:22;;;;;;;;;;;;;;;20.99;34.01;103377.50;7256505;19;154320;-58
2023/02/08 07:41:49;;;;;;;;;;;;;;;21.08;34.40;103370.38;7250353;19;155147;-57
2023/02/08 07:44:17;;;;;;;;;;;;;;;21.12;34.34;103370.75;7242945;19;154945;-57
2023/02/08 07:46:44;;;;;;;;;;;;;;;21.12;34.24;103363.13;7250486;19;153547;-57
2023/02/08 07:49:11;;;;;;;;;;;;;;;21.13;34.51;103364.03;7250342;19;154205;-57
2023/02/08 07:51:38;;;;;;;;;;;;;;;21.10;34.51;103361.69;7249351;19;154733;-57
2023/02/08 07:54:05;;;;;;;;;;;;;;;21.10;34.44;103361.69;7254227;19;154123;-57
2023/02/08 07:56:32;;;;;;;;;;;;;;;21.08;34.53;103361.09;7253858;19;152971;-57
2023/02/08 07:58:59;;;;;;;;;;;;;;;21.07;34.25;103363.06;7251984;19;153803;-57
2023/02/08 08:01:26;;;;;;;;;;;;;;;21.05;34.34;103358.78;7257692;19;153849;-57
2023/02/08 08:03:53;;;;;;;;;;;;;;;21.03;34.47;103363.84;7250011;19;156658;-57
2023/02/08 08:06:21;;;;;;;;;;;;;;;21.01;34.31;103371.66;7252203;19;153694;-57
2023/02/08 08:08:48;;;;;;;;;;;;;;;21.00;34.28;103369.94;7252293;19;153405;-58
2023/02/08 08:11:16;;;;;;;;;;;;;;;20.98;34.26;103374.97;7248791;19;154083;-58
2023/02/08 08:13:43;;;;;;;;;;;;;;;20.94;34.54;103365.34;7249364;19;153293;-57
2023/02/08 08:16:11;;;;;;;;;;;;;;;20.92;34.41;103359.97;7249471;19;153478;-57
2023/02/08 08:18:38;;;;;;;;;;;;;;;20.91;34.49;103360.22;7245591;19;153667;-57
2023/02/08 08:21:05;;;;;;;;;;;;;;;20.89;34.68;103359.63;7246110;19;153617;-58
2023/02/08 08:23:34;;;;;;;;;;;;;;;20.85;34.88;103346.06;7259446;19;152680;-58
2023/02/08 08:26:05;;;;;;;;;;;;;;;20.88;34.59;103352.31;7256558;19;153373;-58
2023/02/08 08:28:32;;;;;;;;;;;;;;;20.93;34.91;103352.41;7255255;19;152759;-58
2023/02/08 08:30:59;;;;;;;;;;;;;;;20.93;34.34;103358.88;7256904;19;155130;-57
2023/02/08 08:33:27;;;;;;;;;;;;;;;20.89;35.01;103359.63;7260015;19;153421;-57
2023/02/08 08:35:54;;;;;;;;;;;;;;;20.91;34.49;103361.06;7257412;19;154304;-58
2023/02/08 08:38:21;;;;;;;;;;;;;;;20.88;34.50;103357.91;7255401;19;154067;-58
2023/02/08 08:40:48;;;;;;;;;;;;;;;20.88;34.71;103364.41;7259368;19;153198;-57
2023/02/08 08:43:16;;;;;;;;;;;;;;;20.84;34.49;103361.25;7260824;19;154319;-58
2023/02/08 08:45:43;;;;;;;;;;;;;;;20.84;34.05;103355.63;7264751;19;153580;-57
2023/02/08 08:48:11;;;;;;;;;;;;;;;20.81;34.03;103352.44;7259036;19;153870;-58
2023/02/08 08:50:38;;;;;;;;;;;;;;;20.79;34.40;103354.66;7255269;19;154556;-57
2023/02/08 08:53:05;;;;;;;;;;;;;;;20.78;34.09;103362.25;7259452;19;154041;-58
2023/02/08 08:55:33;;;;;;;;;;;;;;;20.80;34.33;103354.41;7254784;19;153959;-57
2023/02/08 08:58:00;;;;;;;;;;;;;;;20.80;33.96;103354.41;7256439;19;153560;-58
2023/02/08 09:00:27;;;;;;;;;;;;;;;20.86;34.19;103358.16;7253509;19;153596;-58
2023/02/08 09:02:55;;;;;;;;;;;;;;;20.88;34.47;103358.78;7255897;19;153964;-58
2023/02/08 09:05:22;;;;;;;;;;;;;;;20.90;33.94;103350.94;7264776;19;154348;-58
2023/02/08 09:07:49;;;;;;;;;;;;;;;20.92;34.18;103353.50;7253929;19;153066;-58
2023/02/08 09:10:16;;;;;;;;;;;;;;;20.92;34.04;103345.06;7254820;19;155213;-58
2023/02/08 09:12:44;;;;;;;;;;;;;;;20.95;33.96;103353.84;7258424;19;152998;-58
2023/02/08 09:15:11;;;;;;;;;;;;;;;20.96;34.18;103352.75;7255885;19;153781;-58
2023/02/08 09:17:38;;;;;;;;;;;;;;;20.97;33.94;103353.59;7255120;19;156797;-58
2023/02/08 09:20:05;;;;;;;;;;;;;;;20.95;33.95;103351.03;7256912;19;153470;-58
2023/02/08 09:22:32;;;;;;;;;;;;;;;20.96;34.14;103354.69;7253037;19;154147;-58
2023/02/08 09:25:00;;;;;;;;;;;;;;;20.96;33.74;103349.06;7224290;19;155340;-58
2023/02/08 09:27:28;;;;;;;;;;;;;;;20.95;33.91;103336.97;7255512;19;159941;-58
2023/02/08 09:29:55;;;;;;;;;;;;;;;20.94;33.69;103332.44;7254811;19;154512;-58
2023/02/08 09:32:22;;;;;;;;;;;;;;;20.92;34.07;103336.63;7255867;19;153281;-58
2023/02/08 09:34:49;;;;;;;;;;;;;;;20.94;34.00;103334.44;7254915;19;155222;-58
2023/02/08 09:37:16;;;;;;;;;;;;;;;20.92;33.81;103331.00;7253004;19;154195;-58
2023/02/08 09:39:43;;;;;;;;;;;;;;;20.92;33.74;103333.81;7254512;19;153349;-58
2023/02/08 09:42:14;;;;;;;;;;;;;;;20.90;33.80;103321.97;7254421;19;154631;-58
2023/02/08 09:44:44;;;;;;;;;;;;;;;20.88;33.75;103327.88;7252504;19;155264;-58
2023/02/08 09:47:12;;;;;;;;;;;;;;;20.86;33.76;103330.91;7254313;19;154322;-58
2023/02/08 09:49:43;;;;;;;;;;;;;;;20.86;33.95;103333.72;7263524;19;153859;-58
2023/02/08 09:52:12;;;;;;;;;;;;;;;20.84;33.71;103337.91;7251062;19;153347;-59
2023/02/08 09:54:42;;;;;;;;;;;;;;;20.84;33.68;103338.75;7257211;19;153707;-58
2023/02/08 09:57:12;;;;;;;;;;;;;;;20.80;33.81;103337.53;7252280;19;154966;-58
2023/02/08 09:59:46;;;;;;;;;;;;;;;20.79;33.71;103349.91;7252259;19;152917;-58
2023/02/08 10:02:18;;;;;;;;;;;;;;;20.78;33.94;103353.81;7252569;19;154515;-58
2023/02/08 10:04:45;;;;;;;;;;;;;;;20.77;33.57;103348.44;7254665;19;154507;-59
2023/02/08 10:07:13;;;;;;;;;;;;;;;20.76;33.92;103358.81;7254249;19;153878;-58
2023/02/08 10:09:40;;;;;;;;;;;;;;;20.75;33.97;103353.47;7255624;19;153941;-59
2023/02/08 10:12:07;;;;;;;;;;;;;;;20.72;33.58;103346.38;7260204;19;154827;-58
2023/02/08 10:14:38;;;;;;;;;;;;;;;20.72;33.83;103348.31;7253516;19;153758;-58
2023/02/08 10:17:10;;;;;;;;;;;;;;;20.70;33.81;103347.75;7254097;19;155382;-58
2023/02/08 10:19:40;;;;;;;;;;;;;;;20.69;33.85;103348.84;7258672;19;153013;-58
2023/02/08 10:22:08;;;;;;;;;;;;;;;20.65;33.54;103342.88;7253290;19;154491;-58
2023/02/08 10:24:44;;;;;;;;;;;;;;;20.65;33.55;103342.88;7253157;19;154707;-58
2023/02/08 10:27:14;;;;;;;;;;;;;;;20.64;33.95;103343.97;7253867;19;153282;-58
2023/02/08 10:29:44;;;;;;;;;;;;;;;20.59;33.89;103346.69;7254390;19;154621;-58
2023/02/08 10:32:15;;;;;;;;;;;;;;;20.55;33.91;103342.66;7253094;19;154049;-58
2023/02/08 10:34:44;;;;;;;;;;;;;;;20.56;33.87;103341.56;7263785;19;154166;-58
2023/02/08 10:37:13;;;;;;;;;;;;;;;20.54;33.55;103337.28;7254410;19;154221;-58
2023/02/08 10:39:40;;;;;;;;;;;;;;;20.53;33.48;103342.09;7257871;19;153908;-58
2023/02/08 10:42:11;;;;;;;;;;;;;;;20.48;33.57;103341.13;7253927;19;153966;-58
2023/02/08 10:44:41;;;;;;;;;;;;;;;20.50;33.81;103336.09;7253088;19;153934;-58
2023/02/08 10:47:13;;;;;;;;;;;;;;;20.48;33.73;103338.31;7253978;19;153441;-58
2023/02/08 10:49:47;;;;;;;;;;;;;;;20.45;34.05;103325.59;7254957;19;153891;-58
2023/02/08 10:52:14;;;;;;;;;;;;;;;20.45;33.65;103330.38;7251164;19;155231;-59
2023/02/08 10:54:41;;;;;;;;;;;;;;;20.45;33.72;103330.38;7254514;19;154393;-58
2023/02/08 10:57:13;;;;;;;;;;;;;;;20.44;33.76;103321.13;7254948;19;154037;-58
2023/02/08 10:59:44;;;;;;;;;;;;;;;20.43;33.70;103322.22;7252002;19;153570;-59
2023/02/08 11:02:14;;;;;;;;;;;;;;;20.44;33.57;103326.75;7255115;19;153380;-58
2023/02/08 11:04:56;;;;;;;;;;;;;;;20.42;33.67;103323.31;7255454;19;153943;-58
2023/02/08 11:07:23;;;;;;;;;;;;;;;20.39;33.56;103326.63;7250939;19;152450;-58
2023/02/08 11:09:50;;;;;;;;;;;;;;;20.37;34.08;103318.44;7253769;19;154573;-59
2023/02/08 11:12:19;;;;;;;;;;;;;;;20.37;34.04;103323.22;7252202;19;154134;-58
2023/02/08 11:14:47;;;;;;;;;;;;;;;20.29;33.90;103315.16;7252601;19;155611;-58
2023/02/08 11:17:23;;;;;;;;;;;;;;;20.31;33.67;103319.44;7259576;19;154508;-58
2023/02/08 11:19:50;;;;;;;;;;;;;;;20.31;33.81;103304.53;7249105;19;151928;-59
2023/02/08 11:22:19;;;;;;;;;;;;;;;20.28;33.88;103300.25;7249229;19;153646;-58
2023/02/08 11:24:55;;;;;;;;;;;;;;;20.25;34.18;103305.53;7253456;19;153750;-59
2023/02/08 11:27:25;;;;;;;;;;;;;;;20.20;34.14;103303.47;7253299;19;153169;-58
2023/02/08 11:30:02;;;;;;;;;;;;;;;20.21;34.02;103295.91;7253871;19;155022;-59
2023/02/08 11:32:31;;;;;;;;;;;;;;;20.11;34.32;103293.72;7253591;19;154641;-58
2023/02/08 11:35:10;;;;;;;;;;;;;;;20.09;34.03;103292.25;7257649;19;153470;-59
2023/02/08 11:37:37;;;;;;;;;;;;;;;20.06;34.31;103304.84;7249427;19;154511;-59
2023/02/08 11:40:05;;;;;;;;;;;;;;;20.03;33.96;103296.94;7260566;19;154243;-58
2023/02/08 11:42:35;;;;;;;;;;;;;;;19.96;34.21;103288.63;7251252;19;154496;-59
2023/02/08 11:45:03;;;;;;;;;;;;;;;19.97;34.32;103289.50;7254152;19;154510;-58
2023/02/08 11:47:32;;;;;;;;;;;;;;;19.98;34.06;103291.22;7250445;19;154051;-58
2023/02/08 11:50:01;;;;;;;;;;;;;;;19.97;34.04;103289.50;7249432;19;154250;-58
2023/02/08 11:52:32;;;;;;;;;;;;;;;19.90;34.52;103288.75;7248449;19;154875;-59
2023/02/08 11:55:02;;;;;;;;;;;;;;;19.87;34.45;103283.66;7250949;19;154271;-58
2023/02/08 11:57:31;;;;;;;;;;;;;;;19.87;34.34;103273.28;7253405;19;153724;-58
2023/02/08 12:00:01;;;;;;;;;;;;;;;19.85;34.43;103269.84;7255370;19;153660;-58
2023/02/08 12:02:34;;;;;;;;;;;;;;;19.82;34.07;103263.91;7268415;19;154056;-58
2023/02/08 12:05:03;;;;;;;;;;;;;;;19.81;33.90;103259.38;7255453;19;153998;-58
2023/02/08 12:07:31;;;;;;;;;;;;;;;19.79;34.30;103251.22;7258771;19;153010;-58
2023/02/08 12:09:59;;;;;;;;;;;;;;;19.77;34.20;103249.75;7258520;19;154290;-58
2023/02/08 12:12:27;;;;;;;;;;;;;;;19.75;33.88;103236.00;7258122;19;153580;-58
2023/02/08 12:14:57;;;;;;;;;;;;;;;19.77;34.22;103235.72;7259359;19;152862;-58
2023/02/08 12:17:26;;;;;;;;;;;;;;;19.71;33.95;103222.72;7256859;19;152514;-58
2023/02/08 12:19:56;;;;;;;;;;;;;;;19.71;33.89;103217.13;7255660;19;154638;-58
2023/02/08 12:22:25;;;;;;;;;;;;;;;19.72;33.91;103211.22;7256882;19;153775;-58
2023/02/08 12:24:55;;;;;;;;;;;;;;;19.69;34.11;103206.13;7263336;19;155722;-58
2023/02/08 12:27:32;;;;;;;;;;;;;;;19.69;33.90;103203.31;7255295;19;154288;-58
2023/02/08 12:30:03;;;;;;;;;;;;;;;19.69;34.19;103199.66;7255245;19;153453;-58
2023/02/08 12:32:30;;;;;;;;;;;;;;;19.64;33.83;103193.94;7214175;19;155519;-57
2023/02/08 12:35:00;;;;;;;;;;;;;;;19.64;34.16;103189.19;7246147;19;154239;-57